Time;durP1;ratioP1;P1;durP2;ratioP2;P2;SDS_P1;SDS_P2;PMS_P1;PMS_P2;Temp;Humidity;BMP_temperature;BMP_pressure;BME280_temperature;BME280_humidity;BME280_pressure;Samples;Min_cycle;Max_cycle;Signal;HPM_P1;HPM_P2
2023/10/05 00:01:05;;;;;;;9.63;3.87;;;;;;;;;;5053046;28;20219;-77
2023/10/05 00:03:31;;;;;;;10.90;3.83;;;;;;;;;;5064417;28;20179;-77
2023/10/05 00:06:13;;;;;;;10.67;4.00;;;;;;;;;;5057005;28;20229;-74
2023/10/05 00:08:40;;;;;;;12.60;3.83;;;;;;;;;;5043963;28;20190;-74
2023/10/05 00:11:08;;;;;;;11.97;3.80;;;;;;;;;;5060001;28;20175;-78
2023/10/05 00:13:34;;;;;;;10.20;3.70;;;;;;;;;;5044987;28;20179;-78
2023/10/05 00:16:05;;;;;;;14.40;3.80;;;;;;;;;;5078202;28;20239;-78
2023/10/05 00:18:32;;;;;;;9.17;4.07;;;;;;;;;;5066630;28;20229;-77
2023/10/05 00:21:00;;;;;;;11.87;3.70;;;;;;;;;;5054510;28;20211;-77
2023/10/05 00:23:27;;;;;;;10.23;3.93;;;;;;;;;;5059481;28;20183;-77
2023/10/05 00:25:55;;;;;;;11.17;4.07;;;;;;;;;;5060589;28;20186;-77
2023/10/05 00:28:24;;;;;;;11.10;3.63;;;;;;;;;;5077974;28;20209;-77
2023/10/05 00:30:52;;;;;;;11.23;3.83;;;;;;;;;;5043866;28;20183;-77
2023/10/05 00:33:18;;;;;;;11.90;4.03;;;;;;;;;;5060049;28;20191;-77
2023/10/05 00:35:44;;;;;;;10.20;3.50;;;;;;;;;;5059533;28;20191;-77
2023/10/05 00:40:42;;;;;;;10.63;4.10;;;;;;;;;;5077389;28;20301;-75
2023/10/05 00:43:12;;;;;;;12.50;3.83;;;;;;;;;;5077155;28;20187;-75
2023/10/05 00:45:44;;;;;;;10.93;4.10;;;;;;;;;;5060773;28;20175;-75
2023/10/05 00:48:27;;;;;;;11.47;4.00;;;;;;;;;;5076318;28;20175;-75
2023/10/05 00:50:59;;;;;;;10.07;3.80;;;;;;;;;;5076557;28;20183;-75
2023/10/05 00:53:27;;;;;;;10.97;4.00;;;;;;;;;;5075437;28;20227;-75
2023/10/05 00:56:08;;;;;;;13.47;3.73;;;;;;;;;;5057027;28;20197;-75
2023/10/05 00:58:37;;;;;;;7.93;3.53;;;;;;;;;;5070192;28;20201;-75
2023/10/05 01:01:08;;;;;;;12.37;3.83;;;;;;;;;;5077900;28;20214;-75
2023/10/05 01:03:45;;;;;;;13.67;4.20;;;;;;;;;;5060078;28;20270;-75
2023/10/05 01:06:32;;;;;;;13.77;4.30;;;;;;;;;;5060712;28;20186;-77
2023/10/05 01:09:04;;;;;;;11.33;3.80;;;;;;;;;;5069151;28;20183;-77
2023/10/05 01:11:43;;;;;;;15.23;3.80;;;;;;;;;;5077402;28;20266;-78
2023/10/05 01:14:15;;;;;;;12.33;3.50;;;;;;;;;;5061250;28;20175;-78
2023/10/05 01:16:43;;;;;;;12.83;3.77;;;;;;;;;;5075520;28;20245;-78
2023/10/05 01:19:09;;;;;;;10.50;3.73;;;;;;;;;;5034837;28;20207;-78
2023/10/05 01:21:36;;;;;;;13.97;3.87;;;;;;;;;;5071093;28;20207;-78
2023/10/05 01:24:03;;;;;;;20.43;4.10;;;;;;;;;;5059808;28;20183;-78
2023/10/05 01:26:29;;;;;;;10.10;3.40;;;;;;;;;;5076246;28;20172;-78
2023/10/05 01:28:55;;;;;;;11.87;3.90;;;;;;;;;;5052963;28;20176;-78
2023/10/05 01:31:23;;;;;;;10.80;3.93;;;;;;;;;;5039037;28;20321;-78
2023/10/05 01:33:50;;;;;;;12.20;4.03;;;;;;;;;;5069163;28;20209;-78
2023/10/05 01:36:17;;;;;;;12.17;3.80;;;;;;;;;;5057930;28;20194;-78
2023/10/05 01:38:45;;;;;;;10.90;3.90;;;;;;;;;;5074209;28;20184;-77
2023/10/05 01:41:11;;;;;;;13.47;3.90;;;;;;;;;;5053082;28;20208;-78
2023/10/05 01:43:42;;;;;;;12.03;4.20;;;;;;;;;;5074216;28;20201;-78
2023/10/05 01:46:10;;;;;;;13.23;4.40;;;;;;;;;;5079531;28;20259;-78
2023/10/05 01:48:41;;;;;;;16.50;4.37;;;;;;;;;;5054166;28;20171;-78
2023/10/05 01:51:15;;;;;;;11.33;3.83;;;;;;;;;;5038204;28;20180;-78
2023/10/05 01:53:42;;;;;;;10.17;4.00;;;;;;;;;;5061737;28;20269;-78
2023/10/05 01:56:20;;;;;;;13.07;4.43;;;;;;;;;;5055802;28;20180;-78
2023/10/05 01:58:50;;;;;;;11.30;3.80;;;;;;;;;;5057406;28;20188;-78
2023/10/05 02:01:16;;;;;;;16.10;4.40;;;;;;;;;;5075586;28;20278;-78
2023/10/05 02:03:42;;;;;;;14.53;4.50;;;;;;;;;;5058374;28;20184;-78
2023/10/05 02:06:11;;;;;;;11.97;4.10;;;;;;;;;;5058069;28;20220;-78
2023/10/05 02:08:37;;;;;;;11.67;4.07;;;;;;;;;;5057775;28;20179;-78
2023/10/05 02:11:04;;;;;;;12.53;4.37;;;;;;;;;;5076283;28;20627;-78
2023/10/05 02:13:31;;;;;;;11.43;4.10;;;;;;;;;;5058453;28;20190;-78
2023/10/05 02:15:59;;;;;;;9.87;4.20;;;;;;;;;;5058722;28;20276;-78
2023/10/05 02:18:26;;;;;;;11.63;4.30;;;;;;;;;;5059322;28;20180;-79
2023/10/05 02:21:07;;;;;;;8.77;4.23;;;;;;;;;;5058660;28;20214;-75
2023/10/05 02:23:40;;;;;;;11.47;4.00;;;;;;;;;;5075550;28;20198;-75
2023/10/05 02:26:33;;;;;;;11.73;4.13;;;;;;;;;;5042077;28;20198;-76
2023/10/05 02:28:59;;;;;;;13.50;4.67;;;;;;;;;;5075386;28;20190;-76
2023/10/05 02:31:29;;;;;;;10.90;4.10;;;;;;;;;;5057274;28;20222;-75
2023/10/05 02:33:58;;;;;;;13.70;4.80;;;;;;;;;;5058795;28;20183;-75
2023/10/05 02:36:27;;;;;;;9.97;3.80;;;;;;;;;;5058354;28;20183;-75
2023/10/05 02:38:56;;;;;;;10.50;3.83;;;;;;;;;;5058413;28;20179;-75
2023/10/05 02:41:44;;;;;;;11.30;4.80;;;;;;;;;;5057848;28;20215;-75
2023/10/05 02:46:48;;;;;;;11.10;4.27;;;;;;;;;;5074978;28;20200;-75
2023/10/05 02:49:15;;;;;;;11.30;4.17;;;;;;;;;;5057634;28;20191;-75
2023/10/05 02:51:43;;;;;;;9.93;4.30;;;;;;;;;;5073637;28;20183;-75
2023/10/05 02:54:10;;;;;;;14.33;4.30;;;;;;;;;;5073854;28;20235;-75
2023/10/05 02:56:37;;;;;;;8.93;4.23;;;;;;;;;;5074006;28;20217;-75
2023/10/05 02:59:03;;;;;;;12.97;4.67;;;;;;;;;;5075565;28;20234;-78
2023/10/05 03:01:33;;;;;;;9.03;4.30;;;;;;;;;;5057917;28;20306;-78
2023/10/05 03:04:21;;;;;;;12.60;4.67;;;;;;;;;;5075755;28;20207;-77
2023/10/05 03:06:52;;;;;;;13.07;5.00;;;;;;;;;;5073942;28;20171;-78
2023/10/05 03:09:18;;;;;;;14.60;4.93;;;;;;;;;;5057471;28;20221;-78
2023/10/05 03:11:46;;;;;;;15.10;4.90;;;;;;;;;;5074653;28;20216;-78
2023/10/05 03:14:16;;;;;;;13.53;4.47;;;;;;;;;;5074397;28;20179;-78
2023/10/05 03:16:48;;;;;;;14.43;4.83;;;;;;;;;;5076168;28;20171;-77
2023/10/05 03:19:21;;;;;;;13.03;4.77;;;;;;;;;;5075628;28;20179;-77
2023/10/05 03:21:49;;;;;;;14.80;5.07;;;;;;;;;;5073929;28;20195;-74
2023/10/05 03:24:15;;;;;;;16.33;5.23;;;;;;;;;;5073346;28;20179;-74
2023/10/05 03:26:42;;;;;;;21.77;5.80;;;;;;;;;;5056835;28;20175;-74
2023/10/05 03:29:11;;;;;;;12.47;5.87;;;;;;;;;;5073311;28;20182;-74
2023/10/05 03:31:43;;;;;;;17.30;5.77;;;;;;;;;;5058084;28;20194;-74
2023/10/05 03:34:09;;;;;;;13.93;6.57;;;;;;;;;;5074117;28;20175;-76
2023/10/05 03:36:36;;;;;;;16.67;6.43;;;;;;;;;;5057936;28;20175;-77
2023/10/05 03:39:06;;;;;;;15.30;5.83;;;;;;;;;;5057426;28;20186;-78
2023/10/05 03:41:32;;;;;;;14.07;5.80;;;;;;;;;;5058171;28;20301;-76
2023/10/05 03:44:02;;;;;;;14.97;6.57;;;;;;;;;;5047970;28;20230;-76
2023/10/05 03:46:28;;;;;;;12.17;6.10;;;;;;;;;;5041722;28;20175;-76
2023/10/05 03:49:02;;;;;;;15.00;5.97;;;;;;;;;;5040748;28;20231;-76
2023/10/05 03:51:29;;;;;;;14.43;6.20;;;;;;;;;;5057847;28;20179;-76
2023/10/05 03:53:55;;;;;;;15.43;6.30;;;;;;;;;;5040983;28;20235;-74
2023/10/05 03:56:23;;;;;;;12.70;6.33;;;;;;;;;;5062179;28;20222;-75
2023/10/05 03:58:52;;;;;;;12.67;6.43;;;;;;;;;;5080242;28;20224;-75
2023/10/05 04:01:18;;;;;;;12.90;6.20;;;;;;;;;;5078879;28;20213;-74
2023/10/05 04:03:46;;;;;;;13.50;5.83;;;;;;;;;;5098648;28;20167;-74
2023/10/05 04:06:26;;;;;;;12.83;6.23;;;;;;;;;;5080720;28;20175;-75
2023/10/05 04:08:57;;;;;;;14.47;5.93;;;;;;;;;;5080509;28;20174;-74
2023/10/05 04:11:26;;;;;;;14.67;5.90;;;;;;;;;;5081688;28;20270;-78
2023/10/05 04:13:54;;;;;;;16.57;6.23;;;;;;;;;;5084986;22;20280;-77
2023/10/05 04:16:28;;;;;;;18.70;7.13;;;;;;;;;;5076403;28;20191;-77
2023/10/05 04:18:55;;;;;;;15.20;6.23;;;;;;;;;;5076081;28;20242;-77
2023/10/05 04:21:24;;;;;;;17.10;6.33;;;;;;;;;;5076885;28;20199;-77
2023/10/05 04:23:50;;;;;;;15.60;6.77;;;;;;;;;;5078458;28;20175;-77
2023/10/05 04:26:20;;;;;;;15.33;6.70;;;;;;;;;;5077566;28;20211;-77
2023/10/05 04:28:52;;;;;;;15.10;6.43;;;;;;;;;;5076662;28;20176;-78
2023/10/05 04:31:27;;;;;;;15.20;6.10;;;;;;;;;;5075936;28;20206;-78
2023/10/05 04:33:57;;;;;;;14.60;6.30;;;;;;;;;;5077349;28;20201;-78
2023/10/05 04:36:24;;;;;;;15.07;6.00;;;;;;;;;;5077291;28;20187;-76
2023/10/05 04:38:53;;;;;;;14.77;6.33;;;;;;;;;;5076889;28;20184;-76
2023/10/05 04:41:19;;;;;;;15.20;6.07;;;;;;;;;;5060598;28;20203;-76
2023/10/05 04:43:47;;;;;;;17.40;7.00;;;;;;;;;;5076927;28;20183;-78
2023/10/05 04:46:17;;;;;;;15.37;6.53;;;;;;;;;;5077670;28;20232;-78
2023/10/05 04:48:55;;;;;;;15.57;6.03;;;;;;;;;;5076455;28;20172;-79
2023/10/05 04:51:21;;;;;;;11.90;6.23;;;;;;;;;;5076260;28;20270;-78
2023/10/05 04:53:49;;;;;;;16.37;6.47;;;;;;;;;;5059718;28;20187;-78
2023/10/05 04:56:28;;;;;;;13.70;6.47;;;;;;;;;;5091298;28;20183;-78
2023/10/05 04:59:22;;;;;;;17.70;7.27;;;;;;;;;;5056554;28;20238;-78
2023/10/05 05:04:27;;;;;;;14.67;6.70;;;;;;;;;;5062353;28;20212;-78
2023/10/05 05:06:59;;;;;;;13.30;6.63;;;;;;;;;;5083782;28;20202;-78
2023/10/05 05:09:35;;;;;;;19.27;7.20;;;;;;;;;;5085791;28;20187;-78
2023/10/05 05:12:05;;;;;;;21.03;7.90;;;;;;;;;;5084992;28;20241;-78
2023/10/05 05:14:41;;;;;;;17.47;7.37;;;;;;;;;;5088949;28;20227;-78
2023/10/05 05:17:07;;;;;;;18.53;7.37;;;;;;;;;;5079557;28;20205;-74
2023/10/05 05:19:37;;;;;;;15.57;6.77;;;;;;;;;;5078828;28;20231;-74
2023/10/05 05:22:05;;;;;;;18.30;6.87;;;;;;;;;;5075368;28;20171;-75
2023/10/05 05:24:31;;;;;;;16.77;7.23;;;;;;;;;;5075427;28;20261;-74
2023/10/05 05:29:55;;;;;;;18.07;7.53;;;;;;;;;;5039297;28;20187;-75
2023/10/05 05:32:22;;;;;;;14.83;7.20;;;;;;;;;;5085019;28;20181;-75
2023/10/05 05:34:52;;;;;;;16.13;7.07;;;;;;;;;;5050203;28;20264;-78
2023/10/05 05:37:39;;;;;;;14.57;7.20;;;;;;;;;;5067487;28;20167;-78
2023/10/05 05:40:14;;;;;;;17.17;7.70;;;;;;;;;;5086296;28;20199;-78
2023/10/05 05:42:40;;;;;;;20.37;7.93;;;;;;;;;;5076450;28;20267;-78
2023/10/05 05:45:15;;;;;;;15.97;7.37;;;;;;;;;;5075311;28;20171;-75
2023/10/05 05:47:41;;;;;;;12.47;6.07;;;;;;;;;;5077620;28;20264;-74
2023/10/05 05:50:08;;;;;;;17.27;7.43;;;;;;;;;;5074782;28;20266;-74
2023/10/05 05:52:35;;;;;;;14.17;7.00;;;;;;;;;;5059587;28;20269;-75
2023/10/05 05:55:09;;;;;;;14.70;6.87;;;;;;;;;;5077314;28;20214;-75
2023/10/05 05:57:35;;;;;;;13.27;6.57;;;;;;;;;;5061588;28;20210;-75
2023/10/05 06:00:11;;;;;;;15.77;6.77;;;;;;;;;;5074832;28;20217;-74
2023/10/05 06:02:40;;;;;;;15.50;6.73;;;;;;;;;;5074973;28;20175;-75
2023/10/05 06:05:10;;;;;;;13.87;6.47;;;;;;;;;;5057826;28;20247;-78
2023/10/05 06:07:40;;;;;;;17.80;7.63;;;;;;;;;;5074986;28;20171;-78
2023/10/05 06:10:15;;;;;;;18.43;6.60;;;;;;;;;;5057554;28;20184;-77
2023/10/05 06:12:51;;;;;;;19.97;7.53;;;;;;;;;;5076854;28;20174;-77
2023/10/05 06:15:17;;;;;;;17.33;7.10;;;;;;;;;;5077696;28;20189;-78
2023/10/05 06:17:49;;;;;;;16.43;6.93;;;;;;;;;;5077921;28;20193;-78
2023/10/05 06:20:15;;;;;;;15.13;7.80;;;;;;;;;;5078204;28;20195;-78
2023/10/05 06:22:45;;;;;;;14.17;6.93;;;;;;;;;;5061466;28;20227;-78
2023/10/05 06:25:12;;;;;;;15.17;7.27;;;;;;;;;;5061281;28;20190;-79
2023/10/05 06:27:38;;;;;;;14.87;6.57;;;;;;;;;;5077238;28;20186;-78
2023/10/05 06:30:09;;;;;;;20.70;7.43;;;;;;;;;;5073899;28;20206;-78
2023/10/05 06:32:35;;;;;;;15.77;7.40;;;;;;;;;;5077599;28;20178;-78
2023/10/05 06:35:02;;;;;;;14.93;7.10;;;;;;;;;;5058466;28;20171;-77
2023/10/05 06:37:29;;;;;;;14.17;6.57;;;;;;;;;;5050066;28;20217;-78
2023/10/05 06:39:55;;;;;;;15.67;6.67;;;;;;;;;;5064606;28;20207;-78
2023/10/05 06:42:21;;;;;;;16.10;6.30;;;;;;;;;;5057652;28;20207;-77
2023/10/05 06:44:49;;;;;;;15.13;6.37;;;;;;;;;;5057536;28;20171;-77
2023/10/05 06:50:00;;;;;;;13.33;6.67;;;;;;;;;;5076183;28;20190;-78
2023/10/05 06:52:26;;;;;;;13.50;6.60;;;;;;;;;;5094904;28;20240;-78
2023/10/05 06:54:52;;;;;;;17.37;7.60;;;;;;;;;;5077238;28;20194;-78
2023/10/05 06:57:18;;;;;;;16.83;8.20;;;;;;;;;;5053321;28;20183;-75
2023/10/05 06:59:44;;;;;;;16.97;7.80;;;;;;;;;;5073464;28;20190;-76
2023/10/05 07:02:10;;;;;;;17.33;8.03;;;;;;;;;;5073583;28;20195;-75
2023/10/05 07:04:36;;;;;;;12.60;7.13;;;;;;;;;;5074716;28;20284;-75
2023/10/05 07:07:03;;;;;;;14.60;7.30;;;;;;;;;;5073607;28;20185;-76
2023/10/05 07:09:30;;;;;;;13.30;6.87;;;;;;;;;;5056581;28;20183;-76
2023/10/05 07:11:56;;;;;;;17.93;7.03;;;;;;;;;;5056677;28;20187;-76
2023/10/05 07:14:22;;;;;;;14.00;6.67;;;;;;;;;;5066464;28;20234;-74
2023/10/05 07:16:50;;;;;;;17.93;6.90;;;;;;;;;;5060077;28;20244;-74
2023/10/05 07:19:17;;;;;;;15.37;6.47;;;;;;;;;;5059105;28;20193;-74
2023/10/05 07:21:44;;;;;;;15.07;6.80;;;;;;;;;;5093658;28;20202;-74
2023/10/05 07:24:10;;;;;;;14.40;5.97;;;;;;;;;;5075381;28;20185;-74
2023/10/05 07:26:37;;;;;;;15.63;6.63;;;;;;;;;;5074121;28;20258;-75
2023/10/05 07:29:04;;;;;;;12.53;6.33;;;;;;;;;;5056750;28;20266;-74
2023/10/05 07:31:30;;;;;;;15.90;6.20;;;;;;;;;;5055853;28;20197;-78
2023/10/05 07:33:57;;;;;;;14.07;6.70;;;;;;;;;;5059088;28;20190;-78
2023/10/05 07:36:23;;;;;;;13.77;6.07;;;;;;;;;;5056544;28;20175;-78
2023/10/05 07:38:49;;;;;;;18.63;6.70;;;;;;;;;;5056406;28;20316;-78
2023/10/05 07:41:16;;;;;;;12.03;5.87;;;;;;;;;;5056160;28;20262;-76
2023/10/05 07:43:43;;;;;;;16.20;5.60;;;;;;;;;;5039582;28;20187;-75
2023/10/05 07:46:11;;;;;;;13.60;5.97;;;;;;;;;;5039905;28;20280;-77
2023/10/05 07:48:37;;;;;;;14.13;5.80;;;;;;;;;;5056871;28;20183;-77
2023/10/05 07:51:04;;;;;;;11.83;5.50;;;;;;;;;;5055847;28;20176;-77
2023/10/05 07:53:31;;;;;;;12.57;5.97;;;;;;;;;;5056181;28;20254;-77
2023/10/05 07:55:57;;;;;;;16.93;5.60;;;;;;;;;;5040055;28;20188;-77
2023/10/05 07:58:23;;;;;;;13.53;6.20;;;;;;;;;;5056466;28;20167;-77
2023/10/05 08:00:49;;;;;;;14.07;5.80;;;;;;;;;;5074015;28;20211;-77
2023/10/05 08:03:15;;;;;;;12.87;5.80;;;;;;;;;;5040226;28;20176;-74
2023/10/05 08:05:41;;;;;;;14.50;5.60;;;;;;;;;;5072980;28;20205;-74
2023/10/05 08:08:07;;;;;;;14.73;6.00;;;;;;;;;;5058948;28;20206;-74
2023/10/05 08:10:33;;;;;;;11.90;5.63;;;;;;;;;;5071390;28;20175;-75
2023/10/05 08:13:03;;;;;;;13.20;5.77;;;;;;;;;;5090525;28;20232;-74
2023/10/05 08:15:29;;;;;;;14.10;6.00;;;;;;;;;;5076563;28;20265;-74
2023/10/05 08:17:56;;;;;;;16.73;6.13;;;;;;;;;;5056070;28;20182;-74
2023/10/05 08:20:24;;;;;;;13.47;5.80;;;;;;;;;;5055556;28;20199;-77
2023/10/05 08:22:50;;;;;;;14.87;6.17;;;;;;;;;;5056201;28;20198;-78
2023/10/05 08:25:16;;;;;;;14.50;5.27;;;;;;;;;;5055983;28;20171;-78
2023/10/05 08:27:42;;;;;;;12.83;5.37;;;;;;;;;;5055993;28;20257;-78
2023/10/05 08:30:10;;;;;;;14.77;5.83;;;;;;;;;;5057390;28;20186;-79
2023/10/05 08:32:37;;;;;;;14.23;5.27;;;;;;;;;;5042816;28;20187;-78
2023/10/05 08:35:17;;;;;;;12.87;5.17;;;;;;;;;;5042812;28;20234;-79
2023/10/05 08:37:47;;;;;;;18.53;5.43;;;;;;;;;;5059549;28;20237;-79
2023/10/05 08:40:37;;;;;;;13.33;4.80;;;;;;;;;;5044211;28;20284;-78
2023/10/05 08:43:08;;;;;;;9.47;4.60;;;;;;;;;;5067099;28;20246;-79
2023/10/05 08:45:45;;;;;;;11.27;4.70;;;;;;;;;;5063833;28;20174;-78
2023/10/05 08:48:12;;;;;;;10.17;4.83;;;;;;;;;;5083845;28;20171;-79
2023/10/05 08:50:42;;;;;;;10.17;4.80;;;;;;;;;;5060187;28;20254;-79
2023/10/05 08:53:12;;;;;;;8.97;4.13;;;;;;;;;;5043689;28;20179;-79
2023/10/05 08:55:40;;;;;;;14.53;4.87;;;;;;;;;;5059473;28;20190;-80
2023/10/05 08:58:06;;;;;;;12.87;4.67;;;;;;;;;;5059304;28;20183;-79
2023/10/05 09:00:38;;;;;;;13.53;4.63;;;;;;;;;;5076858;28;20199;-80
2023/10/05 09:06:12;;;;;;;15.93;4.87;;;;;;;;;;5062496;28;20194;-80
2023/10/05 09:08:52;;;;;;;12.10;4.57;;;;;;;;;;5059403;28;20243;-81
2023/10/05 09:11:31;;;;;;;10.10;4.27;;;;;;;;;;5058939;28;20182;-77
2023/10/05 09:14:12;;;;;;;12.97;4.73;;;;;;;;;;5076631;28;20230;-76
2023/10/05 09:16:42;;;;;;;11.53;4.70;;;;;;;;;;5058694;28;20183;-76
2023/10/05 09:19:12;;;;;;;12.47;4.60;;;;;;;;;;5058324;28;20179;-74
2023/10/05 09:21:54;;;;;;;11.23;4.40;;;;;;;;;;5056950;28;20207;-74
2023/10/05 09:24:21;;;;;;;8.80;4.30;;;;;;;;;;5056521;28;20168;-75
2023/10/05 09:26:54;;;;;;;8.47;4.30;;;;;;;;;;5039334;28;20172;-75
2023/10/05 09:29:30;;;;;;;13.00;4.80;;;;;;;;;;5056634;28;20168;-75
2023/10/05 09:31:58;;;;;;;13.30;4.90;;;;;;;;;;5038882;28;20191;-75
2023/10/05 09:34:40;;;;;;;7.77;4.53;;;;;;;;;;5038317;28;20172;-77
2023/10/05 09:37:07;;;;;;;9.73;4.37;;;;;;;;;;5038514;28;20189;-78
2023/10/05 09:39:42;;;;;;;10.70;4.87;;;;;;;;;;5038121;28;20179;-77
2023/10/05 09:42:09;;;;;;;10.37;4.77;;;;;;;;;;5037822;28;20270;-77
2023/10/05 09:44:37;;;;;;;11.60;4.77;;;;;;;;;;5022344;28;20178;-77
2023/10/05 09:47:03;;;;;;;12.83;4.37;;;;;;;;;;5056297;28;20222;-77
2023/10/05 09:49:30;;;;;;;10.23;4.77;;;;;;;;;;5022198;28;20199;-77
2023/10/05 09:51:57;;;;;;;13.67;4.90;;;;;;;;;;5038200;28;20183;-77
2023/10/05 09:54:27;;;;;;;14.30;4.93;;;;;;;;;;5038874;28;20195;-78
2023/10/05 09:56:54;;;;;;;13.30;4.93;;;;;;;;;;5056817;28;20187;-77
2023/10/05 09:59:21;;;;;;;11.13;4.23;;;;;;;;;;5055948;28;20176;-78
2023/10/05 10:01:49;;;;;;;11.43;4.37;;;;;;;;;;5038463;28;20219;-78
2023/10/05 10:04:34;;;;;;;11.93;4.40;;;;;;;;;;5038313;28;20179;-77
2023/10/05 10:07:02;;;;;;;10.07;4.40;;;;;;;;;;5039018;28;20172;-77
2023/10/05 10:09:29;;;;;;;11.03;4.23;;;;;;;;;;5057655;28;20175;-76
2023/10/05 10:12:09;;;;;;;11.07;4.67;;;;;;;;;;5038084;28;20179;-76
2023/10/05 10:14:35;;;;;;;12.87;4.13;;;;;;;;;;5054415;28;20313;-76
2023/10/05 10:17:08;;;;;;;10.93;4.20;;;;;;;;;;5041991;28;20194;-78
2023/10/05 10:19:45;;;;;;;10.00;4.23;;;;;;;;;;5075555;28;20172;-78
2023/10/05 10:22:14;;;;;;;9.37;4.17;;;;;;;;;;5074481;28;20175;-78
2023/10/05 10:24:40;;;;;;;12.90;4.30;;;;;;;;;;5041870;28;20182;-78
2023/10/05 10:27:15;;;;;;;12.67;4.07;;;;;;;;;;5051658;28;20274;-78
2023/10/05 10:29:44;;;;;;;9.50;4.07;;;;;;;;;;5074445;28;20196;-78
2023/10/05 10:32:18;;;;;;;11.87;4.30;;;;;;;;;;5074178;28;20163;-78
2023/10/05 10:34:55;;;;;;;11.53;4.30;;;;;;;;;;5073941;28;20202;-78
2023/10/05 10:37:41;;;;;;;10.83;4.23;;;;;;;;;;5074337;28;20167;-78
2023/10/05 10:40:15;;;;;;;10.97;4.23;;;;;;;;;;5074600;28;20199;-78
2023/10/05 10:42:51;;;;;;;13.20;4.47;;;;;;;;;;5074216;28;20175;-78
2023/10/05 10:45:33;;;;;;;9.87;4.37;;;;;;;;;;5075348;28;20167;-78
2023/10/05 10:48:14;;;;;;;7.77;4.03;;;;;;;;;;5042854;28;20175;-75
2023/10/05 10:50:40;;;;;;;14.67;4.43;;;;;;;;;;5074721;28;20203;-76
2023/10/05 10:53:16;;;;;;;11.40;4.27;;;;;;;;;;5073034;28;20181;-76
2023/10/05 10:55:48;;;;;;;14.27;4.43;;;;;;;;;;5073733;28;20259;-76
2023/10/05 10:58:16;;;;;;;11.50;4.30;;;;;;;;;;5074803;28;20171;-76
2023/10/05 11:01:04;;;;;;;11.30;4.27;;;;;;;;;;5073975;28;20280;-76
2023/10/05 11:03:32;;;;;;;13.83;4.67;;;;;;;;;;5075201;28;20175;-76
2023/10/05 11:06:00;;;;;;;12.73;4.53;;;;;;;;;;5074077;28;20171;-77
2023/10/05 11:08:30;;;;;;;11.30;4.47;;;;;;;;;;5075179;28;20199;-78
2023/10/05 11:10:59;;;;;;;11.43;4.50;;;;;;;;;;5075047;28;20254;-77
2023/10/05 11:13:26;;;;;;;17.17;4.73;;;;;;;;;;5074754;28;20226;-78
2023/10/05 11:15:59;;;;;;;11.27;4.43;;;;;;;;;;5057049;28;20203;-76
2023/10/05 11:18:34;;;;;;;14.80;4.40;;;;;;;;;;5074951;28;20176;-76
2023/10/05 11:21:05;;;;;;;15.40;4.73;;;;;;;;;;5057532;28;20286;-76
2023/10/05 11:23:42;;;;;;;14.27;4.50;;;;;;;;;;5057841;28;20179;-75
2023/10/05 11:26:33;;;;;;;11.87;4.67;;;;;;;;;;5074298;28;20179;-75
2023/10/05 11:28:59;;;;;;;14.40;5.00;;;;;;;;;;5075810;28;20175;-75
2023/10/05 11:31:26;;;;;;;12.50;4.20;;;;;;;;;;5074329;28;20178;-79
2023/10/05 11:34:00;;;;;;;10.10;4.13;;;;;;;;;;5041167;28;20194;-79
2023/10/05 11:36:33;;;;;;;10.87;4.40;;;;;;;;;;5075147;28;20301;-79
2023/10/05 11:39:00;;;;;;;8.97;3.90;;;;;;;;;;5074408;28;20289;-79
2023/10/05 11:41:28;;;;;;;12.47;4.00;;;;;;;;;;5074041;28;20214;-75
2023/10/05 11:43:55;;;;;;;11.57;4.23;;;;;;;;;;5073345;28;20175;-75
2023/10/05 11:46:29;;;;;;;8.07;4.17;;;;;;;;;;5073193;28;20186;-75
2023/10/05 11:48:56;;;;;;;14.50;4.30;;;;;;;;;;5073425;28;20175;-75
2023/10/05 11:51:41;;;;;;;10.63;4.03;;;;;;;;;;5073915;28;20182;-75
2023/10/05 11:54:08;;;;;;;11.63;4.10;;;;;;;;;;5074257;28;20186;-75
2023/10/05 11:56:34;;;;;;;14.00;4.00;;;;;;;;;;5040373;28;20183;-79
2023/10/05 11:59:00;;;;;;;10.77;4.30;;;;;;;;;;5074717;28;20190;-80
2023/10/05 12:01:27;;;;;;;10.37;4.33;;;;;;;;;;5073626;28;20430;-79
2023/10/05 12:03:55;;;;;;;12.90;3.63;;;;;;;;;;5040533;28;20187;-79
2023/10/05 12:06:25;;;;;;;13.63;3.90;;;;;;;;;;5075812;28;20175;-75
2023/10/05 12:09:00;;;;;;;13.47;4.20;;;;;;;;;;5077184;28;20190;-75
2023/10/05 12:11:29;;;;;;;14.00;3.87;;;;;;;;;;5077058;28;20182;-75
2023/10/05 12:13:58;;;;;;;9.97;4.30;;;;;;;;;;5077936;28;20246;-79
2023/10/05 12:16:25;;;;;;;13.20;3.97;;;;;;;;;;5056001;28;20261;-79
2023/10/05 12:18:51;;;;;;;10.00;4.10;;;;;;;;;;5059879;28;20187;-79
2023/10/05 12:21:19;;;;;;;10.00;4.00;;;;;;;;;;5076231;28;20206;-79
2023/10/05 12:23:45;;;;;;;9.83;3.77;;;;;;;;;;5077246;28;20258;-79
2023/10/05 12:26:12;;;;;;;11.67;4.20;;;;;;;;;;5075923;28;20179;-79
2023/10/05 12:28:41;;;;;;;11.27;3.77;;;;;;;;;;5076002;28;20252;-79
2023/10/05 12:31:09;;;;;;;9.17;3.93;;;;;;;;;;5076373;28;20194;-75
2023/10/05 12:33:36;;;;;;;8.37;3.93;;;;;;;;;;5059534;28;20183;-75
2023/10/05 12:36:02;;;;;;;12.03;3.63;;;;;;;;;;5075803;28;20186;-75
2023/10/05 12:38:28;;;;;;;8.73;3.93;;;;;;;;;;5076054;28;20185;-75
2023/10/05 12:40:54;;;;;;;10.97;3.80;;;;;;;;;;5059274;28;20221;-75
2023/10/05 12:43:21;;;;;;;11.43;4.33;;;;;;;;;;5076262;28;20198;-75
2023/10/05 12:45:47;;;;;;;9.93;3.53;;;;;;;;;;5059833;28;20182;-75
2023/10/05 12:48:14;;;;;;;8.30;3.77;;;;;;;;;;5060260;28;20180;-79
2023/10/05 12:50:41;;;;;;;9.40;3.83;;;;;;;;;;5078201;28;20175;-79
2023/10/05 12:53:07;;;;;;;12.47;3.50;;;;;;;;;;5060493;28;20187;-79
2023/10/05 12:55:33;;;;;;;11.03;3.73;;;;;;;;;;5077548;28;20183;-79
2023/10/05 12:57:59;;;;;;;14.37;3.73;;;;;;;;;;5059382;28;20224;-79
2023/10/05 13:00:34;;;;;;;11.13;4.03;;;;;;;;;;5075909;28;20211;-79
2023/10/05 13:03:00;;;;;;;8.57;3.40;;;;;;;;;;5075547;28;20171;-78
2023/10/05 13:05:31;;;;;;;8.73;3.30;;;;;;;;;;5076545;28;20179;-77
2023/10/05 13:08:01;;;;;;;11.03;3.97;;;;;;;;;;5092952;28;20179;-78
2023/10/05 13:10:32;;;;;;;9.80;3.53;;;;;;;;;;5077284;28;20171;-78
2023/10/05 13:13:12;;;;;;;10.17;3.60;;;;;;;;;;5059372;28;20183;-77
2023/10/05 13:15:42;;;;;;;6.40;3.00;;;;;;;;;;5097069;28;20204;-79
2023/10/05 13:18:20;;;;;;;10.27;3.53;;;;;;;;;;5095894;28;20187;-78
2023/10/05 13:20:50;;;;;;;8.77;3.30;;;;;;;;;;5062532;28;20206;-79
2023/10/05 13:23:18;;;;;;;8.03;3.00;;;;;;;;;;5078951;28;20266;-79
2023/10/05 13:25:47;;;;;;;9.23;3.20;;;;;;;;;;5060809;28;20179;-79
2023/10/05 13:28:15;;;;;;;11.33;3.20;;;;;;;;;;5096910;28;20171;-79
2023/10/05 13:30:43;;;;;;;13.27;3.50;;;;;;;;;;5060138;28;20187;-79
2023/10/05 13:33:13;;;;;;;12.50;3.43;;;;;;;;;;5078559;28;20182;-79
2023/10/05 13:35:42;;;;;;;8.73;2.97;;;;;;;;;;5078591;28;20178;-79
2023/10/05 13:38:17;;;;;;;9.77;3.47;;;;;;;;;;5058748;28;20187;-79
2023/10/05 13:40:58;;;;;;;7.33;2.93;;;;;;;;;;5078534;28;20212;-79
2023/10/05 13:43:28;;;;;;;11.83;3.30;;;;;;;;;;5060721;28;20270;-78
2023/10/05 13:46:16;;;;;;;7.97;2.70;;;;;;;;;;5078386;28;20179;-79
2023/10/05 13:48:47;;;;;;;7.90;3.07;;;;;;;;;;5078943;28;20189;-79
2023/10/05 13:51:18;;;;;;;9.23;3.00;;;;;;;;;;5078219;28;20182;-78
2023/10/05 13:53:45;;;;;;;10.00;3.10;;;;;;;;;;5078014;28;20250;-76
2023/10/05 13:56:12;;;;;;;9.10;2.87;;;;;;;;;;5096380;28;20253;-76
2023/10/05 13:58:41;;;;;;;7.90;2.90;;;;;;;;;;5077991;28;20182;-76
2023/10/05 14:01:12;;;;;;;7.70;2.93;;;;;;;;;;5077863;28;20215;-76
2023/10/05 14:03:39;;;;;;;10.10;3.10;;;;;;;;;;5077757;28;20179;-80
2023/10/05 14:06:05;;;;;;;7.80;2.70;;;;;;;;;;5076067;28;20186;-79
2023/10/05 14:08:32;;;;;;;7.97;2.87;;;;;;;;;;5054462;28;20180;-79
2023/10/05 14:11:01;;;;;;;8.97;2.87;;;;;;;;;;5055049;28;20176;-79
2023/10/05 14:13:28;;;;;;;9.73;3.10;;;;;;;;;;5070285;28;20237;-79
2023/10/05 14:15:54;;;;;;;9.13;2.80;;;;;;;;;;5057356;28;20211;-79
2023/10/05 14:18:22;;;;;;;9.63;3.00;;;;;;;;;;5057665;28;20229;-78
2023/10/05 14:20:49;;;;;;;8.83;2.93;;;;;;;;;;5057909;28;20210;-78
2023/10/05 14:23:16;;;;;;;8.87;2.90;;;;;;;;;;5074521;28;20175;-78
2023/10/05 14:25:45;;;;;;;6.13;2.87;;;;;;;;;;5074142;28;20168;-78
2023/10/05 14:28:16;;;;;;;7.77;3.13;;;;;;;;;;5057530;28;20172;-79
2023/10/05 14:30:47;;;;;;;8.00;3.30;;;;;;;;;;5075186;28;20167;-79
2023/10/05 14:33:17;;;;;;;7.13;3.23;;;;;;;;;;5057743;28;20180;-75
2023/10/05 14:35:47;;;;;;;8.67;3.13;;;;;;;;;;5073603;28;20187;-75
2023/10/05 14:38:15;;;;;;;8.33;2.80;;;;;;;;;;5057159;28;20202;-78
2023/10/05 14:40:45;;;;;;;10.23;3.20;;;;;;;;;;5073712;28;20202;-77
2023/10/05 14:43:28;;;;;;;8.07;2.87;;;;;;;;;;5073922;28;20175;-75
2023/10/05 14:45:54;;;;;;;6.83;2.80;;;;;;;;;;5073552;28;20224;-75
2023/10/05 14:48:29;;;;;;;8.23;2.90;;;;;;;;;;5074626;28;20172;-75
2023/10/05 14:50:55;;;;;;;6.57;2.77;;;;;;;;;;5076926;28;20300;-77
2023/10/05 14:53:21;;;;;;;8.57;3.33;;;;;;;;;;5087860;28;20231;-77
2023/10/05 14:55:47;;;;;;;7.07;2.87;;;;;;;;;;5077543;28;20190;-76
2023/10/05 14:58:14;;;;;;;8.23;2.90;;;;;;;;;;5086294;28;20183;-76
2023/10/05 15:00:40;;;;;;;7.87;3.10;;;;;;;;;;5069420;28;20214;-75
2023/10/05 15:03:07;;;;;;;8.37;3.50;;;;;;;;;;5085144;28;20245;-78
2023/10/05 15:05:35;;;;;;;7.80;3.20;;;;;;;;;;5068318;28;20186;-81